createdAt,value
2023-04-05T00:00:13.657Z,3.10
2023-04-05T00:02:41.951Z,3.00
2023-04-05T00:05:11.948Z,3.33
2023-04-05T00:07:39.678Z,3.50
2023-04-05T00:10:08.038Z,3.63
2023-04-05T00:12:37.108Z,3.45
2023-04-05T00:15:05.839Z,3.47
2023-04-05T00:17:33.594Z,3.60
2023-04-05T00:20:02.213Z,3.03
2023-04-05T00:22:31.791Z,3.03
2023-04-05T00:24:59.474Z,3.60
2023-04-05T00:27:27.108Z,3.28
2023-04-05T00:29:56.343Z,3.40
2023-04-05T00:32:24.413Z,3.28
2023-04-05T00:34:52.336Z,3.40
2023-04-05T00:37:20.119Z,3.58
2023-04-05T00:39:47.968Z,3.40
2023-04-05T00:42:15.702Z,3.28
2023-04-05T00:44:43.377Z,3.22
2023-04-05T00:47:12.399Z,3.30
2023-04-05T00:49:40.176Z,3.30
2023-04-05T00:52:08.135Z,3.50
2023-04-05T00:54:36.973Z,3.10
2023-04-05T00:57:06.070Z,3.00
2023-04-05T00:59:33.806Z,3.25
2023-04-05T01:02:07.220Z,2.80
2023-04-05T01:04:38.094Z,3.10
2023-04-05T01:07:10.703Z,3.00
2023-04-05T01:09:45.172Z,3.20
2023-04-05T01:12:17.658Z,3.07
2023-04-05T01:14:47.967Z,3.08
2023-04-05T01:17:16.418Z,3.28
2023-04-05T01:19:48.131Z,3.03
2023-04-05T01:23:00.933Z,3.10
2023-04-05T01:25:56.732Z,3.03
2023-04-05T01:28:58.209Z,3.10
2023-04-05T01:31:32.639Z,2.78
2023-04-05T01:34:07.288Z,3.17
2023-04-05T01:36:40.674Z,3.20
2023-04-05T01:39:10.463Z,3.22
2023-04-05T01:41:39.938Z,3.20
2023-04-05T01:44:07.772Z,3.00
2023-04-05T01:46:36.856Z,3.17
2023-04-05T01:49:04.725Z,3.05
2023-04-05T01:51:33.289Z,3.22
2023-04-05T01:54:01.193Z,3.10
2023-04-05T01:56:28.914Z,3.10
2023-04-05T01:58:56.556Z,3.42
2023-04-05T02:01:24.708Z,3.00
2023-04-05T02:03:54.068Z,2.97
2023-04-05T02:06:21.898Z,3.20
2023-04-05T02:08:49.773Z,3.30
2023-04-05T02:11:17.433Z,3.40
2023-04-05T02:13:45.241Z,3.30
2023-04-05T02:16:13.027Z,3.20
2023-04-05T02:18:41.360Z,3.13
2023-04-05T02:21:11.597Z,2.90
2023-04-05T02:23:39.251Z,3.20
2023-04-05T02:26:06.896Z,3.28
2023-04-05T02:28:34.697Z,3.30
2023-04-05T02:31:02.337Z,3.30
2023-04-05T02:33:30.052Z,3.10
2023-04-05T02:35:57.822Z,3.50
2023-04-05T02:38:26.849Z,3.20
2023-04-05T02:40:55.461Z,3.42
2023-04-05T02:43:23.070Z,3.60
2023-04-05T02:45:50.810Z,3.40
2023-04-05T02:48:18.500Z,3.40
2023-04-05T02:50:48.855Z,3.22
2023-04-05T02:53:16.563Z,3.33
2023-04-05T02:55:53.145Z,3.20
2023-04-05T02:58:21.021Z,3.37
2023-04-05T03:00:51.367Z,3.13
2023-04-05T03:03:19.347Z,3.17
2023-04-05T03:05:48.655Z,3.35
2023-04-05T03:08:19.596Z,3.50
2023-04-05T03:10:48.880Z,3.47
2023-04-05T03:13:16.636Z,3.45
2023-04-05T03:15:44.818Z,3.30
2023-04-05T03:18:12.635Z,3.33
2023-04-05T03:20:41.521Z,3.50
2023-04-05T03:23:09.385Z,3.50
2023-04-05T03:25:38.142Z,3.40
2023-04-05T03:28:08.676Z,3.58
2023-04-05T03:30:36.784Z,3.35
2023-04-05T03:33:04.720Z,3.30
2023-04-05T03:35:32.461Z,3.45
2023-04-05T03:38:00.525Z,3.75
2023-04-05T03:40:28.279Z,3.63
2023-04-05T03:42:55.978Z,4.00
2023-04-05T03:45:25.306Z,3.70
2023-04-05T03:47:53.157Z,3.60
2023-04-05T03:50:20.719Z,3.90
2023-04-05T03:52:48.347Z,3.90
2023-04-05T03:55:17.036Z,3.90
2023-04-05T03:57:45.276Z,3.83
2023-04-05T04:00:14.752Z,3.63
2023-04-05T04:02:45.655Z,3.83
2023-04-05T04:05:13.771Z,3.40
2023-04-05T04:07:42.691Z,3.80
2023-04-05T04:10:11.794Z,3.80
2023-04-05T04:12:39.734Z,3.70
2023-04-05T04:15:08.702Z,3.80
2023-04-05T04:17:37.821Z,3.92
2023-04-05T04:20:10.893Z,3.83
2023-04-05T04:22:42.535Z,3.78
2023-04-05T04:25:12.831Z,3.40
2023-04-05T04:27:42.694Z,3.70
2023-04-05T04:30:12.349Z,3.60
2023-04-05T04:32:54.647Z,3.85
2023-04-05T04:35:25.792Z,3.60
2023-04-05T04:37:58.056Z,3.53
2023-04-05T04:40:26.881Z,3.72
2023-04-05T04:42:54.748Z,3.70
2023-04-05T04:45:22.511Z,4.05
2023-04-05T04:47:53.778Z,3.90
2023-04-05T04:50:24.160Z,3.90
2023-04-05T04:52:51.844Z,3.88
2023-04-05T04:55:26.312Z,4.00
2023-04-05T04:57:54.547Z,3.88
2023-04-05T05:00:23.846Z,4.00
2023-04-05T05:02:53.108Z,3.72
2023-04-05T05:05:22.541Z,3.80
2023-04-05T05:07:52.570Z,3.60
2023-04-05T05:10:20.909Z,4.00
2023-04-05T05:12:49.403Z,3.58
2023-04-05T05:15:17.038Z,3.97
2023-04-05T05:17:45.132Z,3.78
2023-04-05T05:20:13.480Z,3.87
2023-04-05T05:22:42.355Z,4.20
2023-04-05T05:25:12.379Z,3.80
2023-04-05T05:27:40.270Z,3.80
2023-04-05T05:30:09.046Z,4.15
2023-04-05T05:32:36.727Z,3.80
2023-04-05T05:35:04.682Z,3.60
2023-04-05T05:37:33.838Z,3.40
2023-04-05T05:40:01.749Z,3.72
2023-04-05T05:42:32.454Z,3.80
2023-04-05T05:45:04.848Z,3.45
2023-04-05T05:47:32.984Z,3.40
2023-04-05T05:50:00.687Z,3.60
2023-04-05T05:52:28.384Z,3.50
2023-04-05T05:54:56.120Z,3.33
2023-04-05T05:57:23.955Z,3.50
2023-04-05T05:59:53.034Z,3.28
2023-04-05T06:02:20.886Z,3.30
2023-04-05T06:04:49.649Z,4.28
2023-04-05T06:07:17.387Z,3.90
2023-04-05T06:09:45.628Z,3.57
2023-04-05T06:12:13.364Z,3.50
2023-04-05T06:14:41.047Z,3.67
2023-04-05T06:17:10.005Z,3.57
2023-04-05T06:19:37.563Z,3.17
2023-04-05T06:22:05.258Z,3.30
2023-04-05T06:24:32.870Z,4.90
2023-04-05T06:27:01.131Z,4.03
2023-04-05T06:29:28.807Z,3.20
2023-04-05T06:31:56.481Z,3.40
2023-04-05T06:34:25.818Z,3.03
2023-04-05T06:36:53.447Z,3.80
2023-04-05T06:39:21.027Z,4.60
2023-04-05T06:41:48.708Z,4.00
2023-04-05T06:44:16.498Z,2.97
2023-04-05T06:46:44.216Z,3.20
2023-04-05T06:49:11.808Z,3.10
2023-04-05T06:51:40.773Z,3.28
2023-04-05T06:54:08.376Z,3.40
2023-04-05T06:56:36.013Z,2.90
2023-04-05T06:59:03.692Z,3.33
2023-04-05T07:01:31.465Z,3.60
2023-04-05T07:03:59.095Z,3.50
2023-04-05T07:06:26.773Z,3.28
2023-04-05T07:08:55.751Z,3.40
2023-04-05T07:11:23.436Z,3.50
2023-04-05T07:13:51.111Z,3.40
2023-04-05T07:16:22.996Z,3.50
2023-04-05T07:18:51.171Z,3.38
2023-04-05T07:21:18.773Z,3.50
2023-04-05T07:23:46.472Z,3.73
2023-04-05T07:26:15.630Z,3.90
2023-04-05T07:28:43.268Z,3.92
2023-04-05T07:31:10.958Z,4.30
2023-04-05T07:33:38.538Z,3.70
2023-04-05T07:36:06.602Z,3.80
2023-04-05T07:38:34.172Z,3.50
2023-04-05T07:41:02.080Z,3.50
2023-04-05T07:43:31.030Z,3.53
2023-04-05T07:46:03.312Z,3.53
2023-04-05T07:48:31.222Z,3.50
2023-04-05T07:51:04.490Z,3.70
2023-04-05T07:53:32.205Z,3.47
2023-04-05T07:56:00.043Z,4.05
2023-04-05T07:58:30.712Z,3.80
2023-04-05T08:01:02.113Z,3.78
2023-04-05T08:03:30.203Z,3.90
2023-04-05T08:05:58.072Z,3.72
2023-04-05T08:08:26.146Z,3.80
2023-04-05T08:10:53.837Z,3.60
2023-04-05T08:13:21.623Z,3.53
2023-04-05T08:15:49.298Z,3.60
2023-04-05T08:18:19.131Z,3.78
2023-04-05T08:20:51.635Z,3.90
2023-04-05T08:23:19.232Z,3.88
2023-04-05T08:25:47.101Z,7.70
2023-04-05T08:28:14.715Z,7.53
2023-04-05T08:30:42.719Z,7.15
2023-04-05T08:33:10.574Z,5.25
2023-04-05T08:35:40.276Z,4.43
2023-04-05T08:38:08.445Z,3.90
2023-04-05T08:40:42.293Z,3.60
2023-04-05T08:43:14.202Z,3.67
2023-04-05T08:45:48.100Z,3.47
2023-04-05T08:48:16.520Z,3.75
2023-04-05T08:50:51.634Z,3.58
2023-04-05T08:53:19.511Z,3.50
2023-04-05T08:55:50.885Z,3.60
2023-04-05T08:58:22.028Z,3.27
2023-04-05T09:00:52.080Z,3.10
2023-04-05T09:03:24.034Z,3.27
2023-04-05T09:05:54.247Z,3.00
2023-04-05T09:08:22.292Z,3.10
2023-04-05T09:10:52.347Z,3.40
2023-04-05T09:13:20.296Z,3.33
2023-04-05T09:15:48.386Z,2.97
2023-04-05T09:18:26.377Z,3.30
2023-04-05T09:21:03.974Z,3.60
2023-04-05T09:23:31.735Z,3.65
2023-04-05T09:25:59.515Z,3.72
2023-04-05T09:28:42.317Z,3.55
2023-04-05T09:31:10.237Z,3.60
2023-04-05T09:33:38.071Z,3.67
2023-04-05T09:36:07.769Z,3.83
2023-04-05T09:38:45.515Z,3.58
2023-04-05T09:41:13.245Z,3.50
2023-04-05T09:43:42.729Z,3.75
2023-04-05T09:46:30.476Z,4.07
2023-04-05T09:48:58.445Z,3.75
2023-04-05T09:51:34.547Z,3.65
2023-04-05T09:54:04.436Z,3.85
2023-04-05T09:56:33.858Z,3.40
2023-04-05T09:59:04.615Z,3.70
2023-04-05T10:01:32.809Z,3.70
2023-04-05T10:04:01.108Z,3.38
2023-04-05T10:06:40.991Z,3.50
2023-04-05T10:09:11.000Z,3.65
2023-04-05T10:11:39.905Z,3.85
2023-04-05T10:14:09.297Z,3.45
2023-04-05T10:16:45.025Z,3.10
2023-04-05T10:19:21.128Z,2.88
2023-04-05T10:21:51.957Z,3.45
2023-04-05T10:24:36.733Z,3.10
2023-04-05T10:27:07.346Z,3.60
2023-04-05T10:29:42.898Z,3.37
2023-04-05T10:32:19.320Z,3.50
2023-04-05T10:34:58.457Z,3.55
2023-04-05T10:37:37.541Z,3.70
2023-04-05T10:40:11.268Z,3.70
2023-04-05T10:42:44.470Z,3.90
2023-04-05T10:45:17.934Z,4.20
2023-04-05T10:47:50.007Z,3.73
2023-04-05T10:50:22.999Z,3.20
2023-04-05T10:52:52.502Z,3.42
2023-04-05T10:55:20.804Z,3.40
2023-04-05T10:57:49.824Z,3.90
2023-04-05T11:00:19.773Z,3.70
2023-04-05T11:02:49.759Z,4.00
2023-04-05T11:05:32.635Z,3.80
2023-04-05T11:08:06.039Z,3.80
2023-04-05T11:10:37.738Z,3.88
2023-04-05T11:13:10.685Z,3.60
2023-04-05T11:15:38.991Z,3.97
2023-04-05T11:18:09.779Z,3.70
2023-04-05T11:20:45.641Z,3.78
2023-04-05T11:23:17.186Z,3.33
2023-04-05T11:25:51.387Z,3.50
2023-04-05T11:28:26.868Z,3.03
2023-04-05T11:30:58.920Z,3.45
2023-04-05T11:33:57.677Z,3.70
2023-04-05T11:36:34.718Z,3.45
2023-04-05T11:39:26.203Z,3.60
2023-04-05T11:42:04.912Z,3.50
2023-04-05T11:44:42.084Z,3.03
2023-04-05T11:47:11.384Z,3.40
2023-04-05T11:49:39.381Z,3.23
2023-04-05T11:52:17.381Z,3.47
2023-04-05T11:54:47.415Z,3.30
2023-04-05T11:57:17.226Z,3.70
2023-04-05T11:59:45.425Z,3.75
2023-04-05T12:02:13.689Z,3.63
2023-04-05T12:04:41.644Z,3.70
2023-04-05T12:07:10.588Z,3.50
2023-04-05T12:09:55.998Z,3.65
2023-04-05T12:12:25.026Z,3.50
2023-04-05T12:14:52.685Z,3.20
2023-04-05T12:17:20.351Z,3.17
2023-04-05T12:19:48.117Z,3.50
2023-04-05T12:22:16.083Z,3.50
2023-04-05T12:24:43.850Z,3.95
2023-04-05T12:27:11.627Z,3.45
2023-04-05T12:29:41.023Z,3.20
2023-04-05T12:32:08.708Z,3.63
2023-04-05T12:34:37.747Z,3.47
2023-04-05T12:37:05.441Z,3.13
2023-04-05T12:39:34.214Z,3.60
2023-04-05T12:42:01.934Z,3.30
2023-04-05T12:44:30.917Z,3.47
2023-04-05T12:47:03.536Z,3.25
2023-04-05T12:49:31.240Z,3.30
2023-04-05T12:52:03.091Z,3.42
2023-04-05T12:54:32.380Z,3.60
2023-04-05T12:57:04.170Z,4.03
2023-04-05T12:59:32.246Z,3.45
2023-04-05T13:02:00.258Z,3.88
2023-04-05T13:04:29.341Z,3.72
2023-04-05T13:06:57.020Z,5.78
2023-04-05T13:09:24.681Z,4.38
2023-04-05T13:11:52.391Z,4.55
2023-04-05T13:14:20.130Z,4.28
2023-04-05T13:16:47.851Z,4.38
2023-04-05T13:19:15.529Z,4.40
2023-04-05T13:21:44.584Z,4.90
2023-04-05T13:24:13.080Z,3.92
2023-04-05T13:26:40.859Z,4.10
2023-04-05T13:29:08.822Z,4.45
2023-04-05T13:31:36.864Z,4.10
2023-04-05T13:34:04.735Z,4.60
2023-04-05T13:36:32.830Z,4.75
2023-04-05T13:39:01.916Z,4.90
2023-04-05T13:41:29.598Z,3.40
2023-04-05T13:43:58.460Z,4.03
2023-04-05T13:46:28.952Z,5.15
2023-04-05T13:48:56.684Z,4.30
2023-04-05T13:51:31.193Z,4.93
2023-04-05T13:53:59.058Z,3.90
2023-04-05T13:56:28.080Z,3.80
2023-04-05T13:58:55.873Z,3.40
2023-04-05T14:01:23.687Z,3.47
2023-04-05T14:03:51.486Z,3.35
2023-04-05T14:06:19.241Z,3.73
2023-04-05T14:08:46.874Z,3.92
2023-04-05T14:11:14.803Z,3.30
2023-04-05T14:13:44.321Z,3.60
2023-04-05T14:16:12.262Z,3.20
2023-04-05T14:18:40.064Z,3.43
2023-04-05T14:21:08.003Z,3.33
2023-04-05T14:23:35.854Z,3.47
2023-04-05T14:26:03.691Z,3.53
2023-04-05T14:28:31.397Z,3.30
2023-04-05T14:31:00.742Z,3.10
2023-04-05T14:33:28.666Z,3.20
2023-04-05T14:35:56.507Z,3.38
2023-04-05T14:38:24.957Z,3.35
2023-04-05T14:40:52.966Z,3.22
2023-04-05T14:43:21.832Z,3.40
2023-04-05T14:45:49.684Z,3.30
2023-04-05T14:48:19.521Z,3.80
2023-04-05T14:50:47.304Z,3.80
2023-04-05T14:53:15.247Z,3.65
2023-04-05T14:55:43.667Z,3.30
2023-04-05T14:58:14.258Z,3.30
2023-04-05T15:00:42.716Z,3.20
2023-04-05T15:03:11.606Z,4.15
2023-04-05T15:05:41.024Z,4.07
2023-04-05T15:08:09.162Z,3.90
2023-04-05T15:10:37.007Z,3.40
2023-04-05T15:13:04.802Z,3.40
2023-04-05T15:15:38.844Z,3.38
2023-04-05T15:18:07.858Z,3.72
2023-04-05T15:20:36.364Z,3.55
2023-04-05T15:23:05.501Z,8.07
2023-04-05T15:25:33.281Z,8.03
2023-04-05T15:28:06.729Z,6.25
2023-04-05T15:30:34.955Z,8.02
2023-04-05T15:33:02.761Z,6.65
2023-04-05T15:35:30.817Z,4.40
2023-04-05T15:37:58.788Z,3.70
2023-04-05T15:40:29.232Z,4.30
2023-04-05T15:42:57.057Z,4.05
2023-04-05T15:45:24.817Z,4.03
2023-04-05T15:47:52.542Z,3.80
2023-04-05T15:50:21.933Z,3.30
2023-04-05T15:52:49.886Z,4.30
2023-04-05T15:55:18.041Z,3.90
2023-04-05T15:57:49.523Z,3.50
2023-04-05T16:00:17.934Z,3.60
2023-04-05T16:02:45.810Z,4.90
2023-04-05T16:05:13.770Z,5.50
2023-04-05T16:07:41.834Z,5.88
2023-04-05T16:10:10.934Z,5.00
2023-04-05T16:12:39.006Z,3.60
2023-04-05T16:15:09.571Z,3.55
2023-04-05T16:17:37.574Z,3.95
2023-04-05T16:20:06.442Z,4.10
2023-04-05T16:22:34.190Z,3.83
2023-04-05T16:25:01.938Z,4.20
2023-04-05T16:27:29.685Z,4.13
2023-04-05T16:29:57.362Z,4.60
2023-04-05T16:32:26.522Z,4.32
2023-04-05T16:34:54.368Z,3.78
2023-04-05T16:37:22.155Z,4.53
2023-04-05T16:39:50.156Z,3.83
2023-04-05T16:42:17.944Z,3.78
2023-04-05T16:44:45.992Z,4.20
2023-04-05T16:47:13.770Z,3.72
2023-04-05T16:49:43.251Z,4.05
2023-04-05T16:52:11.410Z,3.85
2023-04-05T16:54:39.500Z,3.63
2023-04-05T16:57:07.477Z,3.90
2023-04-05T16:59:35.348Z,3.97
2023-04-05T17:02:03.327Z,3.63
2023-04-05T17:04:31.449Z,3.67
2023-04-05T17:07:00.721Z,4.40
2023-04-05T17:09:29.233Z,3.78
2023-04-05T17:11:57.321Z,5.00
2023-04-05T17:14:25.408Z,3.97
2023-04-05T17:16:53.554Z,6.00
2023-04-05T17:19:21.511Z,4.65
2023-04-05T17:21:49.432Z,4.20
2023-04-05T17:24:18.628Z,4.70
2023-04-05T17:26:46.979Z,7.35
2023-04-05T17:29:17.483Z,7.70
2023-04-05T17:31:45.444Z,6.10
2023-04-05T17:34:14.979Z,7.40
2023-04-05T17:36:43.954Z,8.05
2023-04-05T17:39:11.759Z,5.78
2023-04-05T17:41:40.887Z,6.60
2023-04-05T17:44:08.947Z,5.30
2023-04-05T17:46:42.793Z,4.97
2023-04-05T17:49:14.433Z,6.63
2023-04-05T17:51:42.402Z,6.07
2023-04-05T17:54:12.307Z,5.53
2023-04-05T17:56:41.494Z,4.50
2023-04-05T17:59:09.722Z,4.38
2023-04-05T18:01:38.044Z,7.78
2023-04-05T18:04:06.650Z,7.82
2023-04-05T18:06:35.229Z,6.35
2023-04-05T18:09:03.460Z,6.80
2023-04-05T18:11:31.711Z,5.00
2023-04-05T18:14:00.933Z,5.20
2023-04-05T18:16:29.352Z,5.78
2023-04-05T18:18:57.410Z,5.25
2023-04-05T18:21:25.794Z,5.45
2023-04-05T18:23:53.886Z,4.63
2023-04-05T18:26:21.670Z,4.50
2023-04-05T18:28:49.374Z,4.53
2023-04-05T18:31:18.776Z,4.60
2023-04-05T18:33:46.635Z,4.47
2023-04-05T18:36:14.663Z,4.50
2023-04-05T18:38:42.461Z,4.43
2023-04-05T18:41:12.272Z,5.00
2023-04-05T18:43:40.143Z,4.93
2023-04-05T18:46:08.302Z,5.07
2023-04-05T18:48:38.933Z,4.40
2023-04-05T18:51:06.849Z,4.23
2023-04-05T18:53:34.961Z,4.00
2023-04-05T18:56:02.832Z,4.20
2023-04-05T18:58:31.018Z,4.40
2023-04-05T19:01:04.570Z,5.60
2023-04-05T19:03:32.514Z,5.90
2023-04-05T19:06:01.773Z,5.70
2023-04-05T19:08:29.571Z,5.40
2023-04-05T19:10:57.474Z,4.60
2023-04-05T19:13:25.408Z,4.07
2023-04-05T19:15:53.919Z,4.28
2023-04-05T19:18:25.671Z,4.55
2023-04-05T19:20:54.708Z,4.18
2023-04-05T19:23:25.116Z,3.80
2023-04-05T19:25:52.978Z,3.90
2023-04-05T19:28:20.950Z,4.20
2023-04-05T19:30:49.022Z,4.55
2023-04-05T19:33:18.077Z,4.07
2023-04-05T19:35:47.995Z,4.03
2023-04-05T19:38:16.425Z,3.80
2023-04-05T19:40:45.678Z,3.90
2023-04-05T19:43:13.946Z,3.70
2023-04-05T19:45:42.097Z,3.65
2023-04-05T19:48:38.190Z,3.67
2023-04-05T19:51:07.873Z,3.87
2023-04-05T19:53:43.961Z,3.70
2023-04-05T19:56:16.620Z,3.90
2023-04-05T19:58:44.928Z,3.60
2023-04-05T20:01:13.114Z,3.95
2023-04-05T20:03:42.366Z,4.80
2023-04-05T20:06:11.774Z,4.40
2023-04-05T20:08:41.591Z,4.60
2023-04-05T20:11:12.415Z,4.68
2023-04-05T20:13:48.434Z,4.80
2023-04-05T20:16:17.073Z,4.28
2023-04-05T20:18:46.858Z,4.10
2023-04-05T20:21:15.483Z,4.10
2023-04-05T20:23:44.738Z,3.72
2023-04-05T20:26:14.185Z,4.03
2023-04-05T20:28:43.678Z,3.58
2023-04-05T20:31:19.367Z,3.60
2023-04-05T20:33:50.192Z,3.50
2023-04-05T20:36:20.724Z,3.25
2023-04-05T20:38:50.107Z,4.00
2023-04-05T20:41:19.901Z,3.70
2023-04-05T20:43:47.731Z,3.53
2023-04-05T20:46:17.257Z,3.63
2023-04-05T20:48:45.249Z,3.25
2023-04-05T20:51:13.273Z,3.03
2023-04-05T20:53:41.097Z,3.30
2023-04-05T20:56:10.918Z,3.22
2023-04-05T20:58:40.546Z,2.90
2023-04-05T21:01:10.360Z,2.83
2023-04-05T21:03:41.528Z,2.88
2023-04-05T21:06:10.638Z,5.80
2023-04-05T21:08:40.020Z,13.02
2023-04-05T21:11:10.031Z,6.70
2023-04-05T21:13:37.793Z,3.60
2023-04-05T21:16:06.291Z,3.42
2023-04-05T21:18:34.310Z,3.10
2023-04-05T21:21:03.395Z,3.20
2023-04-05T21:23:32.762Z,3.20
2023-04-05T21:26:01.886Z,3.00
2023-04-05T21:28:29.611Z,3.10
2023-04-05T21:30:57.734Z,3.30
2023-04-05T21:33:25.941Z,3.10
2023-04-05T21:35:53.756Z,3.58
2023-04-05T21:38:22.842Z,3.28
2023-04-05T21:40:51.054Z,3.08
2023-04-05T21:43:18.760Z,3.03
2023-04-05T21:45:47.223Z,3.17
2023-04-05T21:48:15.017Z,3.00
2023-04-05T21:50:42.736Z,2.88
2023-04-05T21:53:10.685Z,2.97
2023-04-05T21:55:39.801Z,3.10
2023-04-05T21:58:07.713Z,2.60
2023-04-05T22:00:35.884Z,3.10
2023-04-05T22:03:03.721Z,3.00
2023-04-05T22:05:37.825Z,2.88
2023-04-05T22:08:07.218Z,3.30
2023-04-05T22:10:35.745Z,3.10
2023-04-05T22:13:05.001Z,6.45
2023-04-05T22:15:32.753Z,9.65
2023-04-05T22:18:00.582Z,10.98
2023-04-05T22:20:28.478Z,17.17
2023-04-05T22:22:56.375Z,17.02
2023-04-05T22:25:26.250Z,25.05
2023-04-05T22:27:59.359Z,4.97
2023-04-05T22:30:28.747Z,3.80
2023-04-05T22:32:56.754Z,3.10
2023-04-05T22:35:24.869Z,3.42
2023-04-05T22:37:52.823Z,2.95
2023-04-05T22:40:26.180Z,3.22
2023-04-05T22:42:54.146Z,2.90
2023-04-05T22:45:21.887Z,2.90
2023-04-05T22:47:51.027Z,3.47
2023-04-05T22:50:18.861Z,3.05
2023-04-05T22:52:46.825Z,3.30
2023-04-05T22:55:14.617Z,3.33
2023-04-05T22:57:42.431Z,3.25
2023-04-05T23:00:12.288Z,3.10
2023-04-05T23:02:40.027Z,3.50
2023-04-05T23:05:10.149Z,3.38
2023-04-05T23:07:37.820Z,3.47
2023-04-05T23:10:06.272Z,3.45
2023-04-05T23:12:34.037Z,3.53
2023-04-05T23:15:01.807Z,3.70
2023-04-05T23:17:29.640Z,3.20
2023-04-05T23:19:57.361Z,3.43
2023-04-05T23:22:26.463Z,2.90
2023-04-05T23:24:54.423Z,3.00
2023-04-05T23:27:22.776Z,2.97
2023-04-05T23:29:50.538Z,2.90
2023-04-05T23:32:18.478Z,2.78
2023-04-05T23:34:46.411Z,3.08
2023-04-05T23:37:14.329Z,3.08
2023-04-05T23:39:44.063Z,2.90
2023-04-05T23:42:11.823Z,3.10
2023-04-05T23:44:39.731Z,2.70
2023-04-05T23:47:07.549Z,2.80
2023-04-05T23:49:35.557Z,3.30
2023-04-05T23:52:03.348Z,3.03
2023-04-05T23:54:31.064Z,3.05
2023-04-05T23:57:00.183Z,3.22
2023-04-05T23:59:28.000Z,2.58
